createdAt,value
2023-01-18T11:50:55.015Z,75.02
2023-01-18T11:53:43.867Z,74.68
2023-01-18T11:56:32.176Z,74.76
2023-01-18T11:59:13.544Z,74.85
2023-01-18T12:02:12.060Z,75.16
2023-01-18T12:04:58.686Z,75.06
2023-01-18T12:07:45.973Z,75.14
2023-01-18T12:10:23.533Z,74.79
2023-01-18T12:13:21.396Z,75.01
2023-01-18T12:16:05.497Z,74.96
2023-01-18T12:19:06.096Z,74.74
2023-01-18T12:21:49.791Z,74.79
2023-01-18T12:24:35.836Z,74.71
2023-01-18T12:27:17.948Z,74.78
2023-01-18T12:30:14.754Z,74.77
2023-01-18T12:33:06.597Z,74.73
2023-01-18T12:35:51.476Z,74.64
2023-01-18T12:38:29.328Z,74.47
2023-01-18T12:41:31.052Z,74.41
2023-01-18T12:44:44.757Z,74.34
2023-01-18T12:47:32.819Z,74.36
2023-01-18T12:50:17.008Z,74.16
2023-01-18T12:52:53.999Z,74.08
2023-01-18T12:55:31.634Z,74.02
2023-01-18T12:58:07.349Z,73.99
2023-01-18T13:00:46.121Z,73.96
2023-01-18T13:03:25.240Z,73.87
2023-01-18T13:06:00.271Z,73.98
2023-01-18T13:08:43.167Z,73.86
2023-01-18T13:11:22.376Z,73.74
2023-01-18T13:14:08.909Z,73.90
2023-01-18T13:16:47.383Z,73.84
2023-01-18T13:19:25.872Z,73.91
2023-01-18T13:22:07.736Z,73.69
2023-01-18T13:24:52.549Z,73.90
2023-01-18T13:27:25.732Z,73.78
2023-01-18T13:30:09.322Z,73.80
2023-01-18T13:32:44.961Z,73.70
2023-01-18T13:35:23.282Z,73.61
2023-01-18T13:38:01.002Z,73.74
2023-01-18T13:40:40.788Z,73.74
2023-01-18T13:43:32.691Z,73.73
2023-01-18T13:46:23.519Z,73.63
2023-01-18T13:48:58.409Z,73.35
2023-01-18T13:51:54.779Z,73.60
2023-01-18T13:55:06.910Z,73.63
2023-01-18T13:57:39.900Z,73.50
2023-01-18T14:00:25.027Z,73.58
2023-01-18T14:03:07.306Z,73.82
2023-01-18T14:05:45.101Z,73.70
2023-01-18T14:08:23.769Z,73.90
2023-01-18T14:11:05.366Z,74.06
2023-01-18T14:14:24.872Z,74.07
2023-01-18T14:17:04.491Z,73.79
2023-01-18T14:20:15.302Z,73.95
2023-01-18T14:23:05.489Z,73.90
2023-01-18T14:26:15.133Z,74.17
2023-01-18T14:28:51.360Z,73.88
2023-01-18T14:31:29.436Z,74.14
2023-01-18T14:34:36.075Z,74.13
2023-01-18T14:37:27.127Z,74.11
2023-01-18T14:40:19.972Z,74.29
2023-01-18T14:42:56.043Z,74.57
2023-01-18T14:45:32.215Z,74.38
2023-01-18T14:48:11.023Z,74.71
2023-01-18T14:50:46.863Z,74.74
2023-01-18T14:53:24.717Z,74.93
2023-01-18T14:56:16.239Z,74.80
2023-01-18T14:58:54.224Z,74.83
2023-01-18T15:01:31.419Z,75.08
2023-01-18T15:04:06.666Z,74.89
2023-01-18T15:06:44.623Z,75.25
2023-01-18T15:09:21.673Z,75.26
2023-01-18T15:12:00.156Z,75.22
2023-01-18T15:14:35.759Z,75.20
2023-01-18T15:17:12.021Z,75.17
2023-01-18T15:19:47.410Z,75.19
2023-01-18T15:22:22.464Z,75.23
2023-01-18T15:24:59.016Z,75.38
2023-01-18T15:27:33.926Z,75.27
2023-01-18T15:30:14.176Z,75.34
2023-01-18T15:32:48.975Z,75.33
2023-01-18T15:35:25.429Z,75.43
2023-01-18T15:37:58.860Z,75.49
2023-01-18T15:40:32.856Z,75.50
2023-01-18T15:43:09.238Z,75.15
2023-01-18T15:45:49.561Z,75.25
2023-01-18T15:48:24.234Z,75.34
2023-01-18T15:50:58.741Z,75.53
2023-01-18T15:53:35.725Z,75.49
2023-01-18T15:56:10.086Z,75.55
2023-01-18T15:58:47.141Z,75.55
2023-01-18T16:01:22.197Z,75.49
2023-01-18T16:03:58.797Z,75.75
2023-01-18T16:06:34.277Z,75.85
2023-01-18T16:09:21.099Z,75.73
2023-01-18T16:11:57.015Z,75.77
2023-01-18T16:14:40.516Z,75.77
2023-01-18T16:17:16.649Z,75.61
2023-01-18T16:19:52.307Z,75.84
2023-01-18T16:22:27.258Z,75.95
2023-01-18T16:25:03.399Z,75.81
2023-01-18T16:27:48.473Z,75.92
2023-01-18T16:30:34.439Z,75.81
2023-01-18T16:33:10.948Z,76.16
2023-01-18T16:35:48.422Z,75.84
2023-01-18T16:38:21.929Z,75.87
2023-01-18T16:40:55.800Z,75.75
2023-01-18T16:43:30.188Z,75.95
2023-01-18T16:46:04.865Z,75.92
2023-01-18T16:48:38.091Z,75.78
2023-01-18T16:51:33.300Z,75.92
2023-01-18T16:54:06.685Z,75.77
2023-01-18T16:56:40.326Z,75.92
2023-01-18T16:59:19.577Z,75.92
2023-01-18T17:01:54.436Z,75.98
2023-01-18T17:04:27.732Z,75.98
2023-01-18T17:07:01.065Z,76.07
2023-01-18T17:09:40.398Z,75.91
2023-01-18T17:12:20.516Z,76.00
2023-01-18T17:14:53.490Z,75.95
2023-01-18T17:17:27.949Z,75.96
2023-01-18T17:20:00.956Z,75.97
2023-01-18T17:22:33.917Z,76.05
2023-01-18T17:25:07.739Z,75.97
2023-01-18T17:27:40.883Z,76.01
2023-01-18T17:30:16.249Z,76.04
2023-01-18T17:32:51.046Z,76.17
2023-01-18T17:35:25.336Z,76.07
2023-01-18T17:38:05.903Z,76.12
2023-01-18T17:40:44.753Z,76.08
2023-01-18T17:43:31.996Z,76.04
2023-01-18T17:46:06.566Z,76.23
2023-01-18T17:48:41.111Z,76.12
2023-01-18T17:51:15.322Z,76.17
2023-01-18T17:53:48.296Z,76.24
2023-01-18T17:56:21.706Z,76.10
2023-01-18T17:58:55.107Z,76.26
2023-01-18T18:01:28.199Z,76.13
2023-01-18T18:04:02.660Z,76.12
2023-01-18T18:06:38.191Z,76.17
2023-01-18T18:09:15.895Z,76.19
2023-01-18T18:11:49.036Z,76.08
2023-01-18T18:14:22.266Z,76.10
2023-01-18T18:16:55.347Z,76.27
2023-01-18T18:19:30.252Z,76.21
2023-01-18T18:22:03.402Z,76.29
2023-01-18T18:24:36.500Z,76.19
2023-01-18T18:27:09.522Z,76.18
2023-01-18T18:29:42.602Z,76.32
2023-01-18T18:32:17.126Z,76.23
2023-01-18T18:34:51.533Z,76.12
2023-01-18T18:37:24.642Z,76.39
2023-01-18T18:39:57.554Z,76.32
2023-01-18T18:42:30.620Z,76.34
2023-01-18T18:45:03.779Z,76.27
2023-01-18T18:47:38.880Z,76.12
2023-01-18T18:50:13.292Z,76.18
2023-01-18T18:52:46.504Z,76.18
2023-01-18T18:55:19.630Z,76.05
2023-01-18T18:57:52.730Z,76.11
2023-01-18T19:00:27.434Z,75.89
2023-01-18T19:03:02.209Z,76.08
2023-01-18T19:05:37.228Z,75.94
2023-01-18T19:08:10.217Z,75.75
2023-01-18T19:10:43.211Z,75.94
2023-01-18T19:13:16.671Z,75.93
2023-01-18T19:15:51.306Z,75.82
2023-01-18T19:18:24.509Z,75.88
2023-01-18T19:20:58.959Z,75.98
2023-01-18T19:23:31.997Z,75.95
2023-01-18T19:26:05.063Z,75.94
2023-01-18T19:28:38.280Z,75.73
2023-01-18T19:31:11.838Z,75.86
2023-01-18T19:33:44.886Z,75.94
2023-01-18T19:36:19.251Z,76.08
2023-01-18T19:38:59.376Z,75.85
2023-01-18T19:41:33.310Z,75.89
2023-01-18T19:44:06.643Z,76.00
2023-01-18T19:46:39.905Z,75.99
2023-01-18T19:49:13.118Z,75.82
2023-01-18T19:51:47.498Z,75.95
2023-01-18T19:54:20.567Z,75.75
2023-01-18T19:56:56.017Z,75.71
2023-01-18T19:59:29.200Z,75.78
2023-01-18T20:02:02.390Z,75.87
2023-01-18T20:04:36.591Z,75.93
2023-01-18T20:07:12.752Z,75.96
2023-01-18T20:09:45.961Z,75.82
2023-01-18T20:12:18.987Z,75.97
2023-01-18T20:14:52.070Z,75.78
2023-01-18T20:17:25.015Z,75.66
2023-01-18T20:19:57.950Z,75.70
2023-01-18T20:22:32.267Z,75.68
2023-01-18T20:25:06.248Z,75.57
2023-01-18T20:27:40.386Z,75.63
2023-01-18T20:30:14.171Z,75.74
2023-01-18T20:32:47.749Z,75.66
2023-01-18T20:35:21.699Z,75.72
2023-01-18T20:37:56.433Z,75.38
2023-01-18T20:40:35.214Z,75.49
2023-01-18T20:43:08.609Z,75.30
2023-01-18T20:45:41.689Z,75.53
2023-01-18T20:48:14.837Z,75.39
2023-01-18T20:50:47.982Z,75.40
2023-01-18T20:53:22.367Z,75.46
2023-01-18T20:55:55.598Z,75.44
2023-01-18T20:58:31.767Z,75.49
2023-01-18T21:01:08.486Z,75.50
2023-01-18T21:03:41.556Z,75.34
2023-01-18T21:06:16.073Z,75.43
2023-01-18T21:08:52.895Z,75.38
2023-01-18T21:11:26.937Z,75.14
2023-01-18T21:14:00.249Z,75.31
2023-01-18T21:16:33.344Z,75.32
2023-01-18T21:19:06.364Z,75.24
2023-01-18T21:21:40.053Z,75.25
2023-01-18T21:24:14.471Z,75.22
2023-01-18T21:26:47.537Z,75.09
2023-01-18T21:29:20.643Z,75.28
2023-01-18T21:31:57.324Z,75.18
2023-01-18T21:34:30.526Z,75.10
2023-01-18T21:37:03.789Z,75.17
2023-01-18T21:39:38.168Z,75.25
2023-01-18T21:42:29.489Z,75.17
2023-01-18T21:45:19.655Z,75.08
2023-01-18T21:47:52.617Z,75.20
2023-01-18T21:50:43.345Z,75.17
2023-01-18T21:53:33.646Z,75.00
2023-01-18T21:56:08.302Z,75.17
2023-01-18T21:58:58.067Z,75.25
2023-01-18T22:01:34.281Z,75.05
2023-01-18T22:04:27.317Z,75.20
2023-01-18T22:07:01.203Z,75.04
2023-01-18T22:09:35.012Z,74.89
2023-01-18T22:12:09.519Z,74.75
2023-01-18T22:14:42.499Z,74.52
2023-01-18T22:17:15.499Z,74.59
2023-01-18T22:19:48.653Z,74.74
2023-01-18T22:22:21.657Z,74.69
2023-01-18T22:24:56.501Z,74.79
2023-01-18T22:27:30.887Z,74.86
2023-01-18T22:30:05.690Z,74.81
2023-01-18T22:32:40.830Z,74.82
2023-01-18T22:35:13.867Z,74.85
2023-01-18T22:37:47.302Z,74.83
2023-01-18T22:40:21.620Z,74.83
2023-01-18T22:42:56.931Z,74.67
2023-01-18T22:45:30.179Z,74.65
2023-01-18T22:48:03.408Z,74.69
2023-01-18T22:50:36.699Z,74.71
2023-01-18T22:53:09.722Z,74.76
2023-01-18T22:55:42.692Z,74.82
2023-01-18T22:58:17.844Z,74.70
2023-01-18T23:00:51.016Z,74.76
2023-01-18T23:03:26.597Z,74.74
2023-01-18T23:06:01.432Z,74.57
2023-01-18T23:08:42.538Z,74.70
2023-01-18T23:11:17.321Z,74.72
2023-01-18T23:14:11.742Z,74.76
2023-01-18T23:17:06.003Z,74.67
2023-01-18T23:19:38.973Z,74.57
2023-01-18T23:22:11.979Z,74.40
2023-01-18T23:24:44.978Z,74.49
2023-01-18T23:27:17.955Z,74.57
2023-01-18T23:29:56.642Z,74.42
2023-01-18T23:32:31.584Z,74.46
2023-01-18T23:35:06.131Z,74.46
2023-01-18T23:37:39.108Z,74.50
2023-01-18T23:40:30.802Z,74.53
2023-01-18T23:43:21.127Z,74.58
2023-01-18T23:46:13.232Z,74.47
2023-01-18T23:49:03.445Z,74.44
2023-01-18T23:51:53.636Z,74.62
2023-01-18T23:54:26.775Z,74.48
2023-01-18T23:56:59.750Z,74.48
2023-01-18T23:59:32.703Z,74.47
